Aguila, Arizona
Current Conditions -  °F | °C
As of 5:35 AM on Friday 21 Nov 2014 (Local Time) from KBXK Reporting Station
Overcast Overcast  
Wind Chill: 50°   Ceiling: 12000
Heat Index: 50°   Visibility: 10mi
Dew Point: 18°   Wind: 5mph
Humidity: 28%   Direction: 30°NNE
Pressure: 29.89"   Gusts: NA
Location:  33.94°N, 113.18°W
Report Text: KBXK 211235Z AUTO 03004KT 10SM OVC120 10/M08 A2989 RMK AO1
Loading
Personal Weather Stations






























Interactive Weather Map New forecast layout! Learn more

10-Day Weather Forecast

Advertisements
Track Severe Weather on mobile